Perseverance — WDD5594 — position and weather

sailwx.info

Track history (hours):
 
Tides and Currents Weather Stations Pressure Air Temp Water Temp Dewpoint Dewpoint Depression Visibility Wind Speed Wind Dir Waves Ship Positions

Perseverance

Owner: Cooper, Mark E, Toledo, OR. More information available from US FCC via Universal Licensing System and Coast Guard Vessel Documentation Center.

Last reported at 2014-Sep-28 09:32 UTC. Time now 2014-Oct-21 03:47 UTC.
Position N 46°18' W 124°10'.
Warning: this ship's position is 22 days out of date.

Type: Fishing. MMSI: 367618000.

Date/timePositionNaut miles runAvg speedWind from/ knotsBaromVisibWave heightAir tempDewpointWater temp
2014-Sep-28 09:32N 46°18' W 124°10'7 7.1
2014-Sep-28 08:33N 46°15' W 124°01'6 6.4
2014-Sep-28 07:33N 46°11' W 123°54'1 1.5
2014-Sep-28 06:33N 46°11' W 123°52'0 0.0
2014-Sep-28 05:33N 46°11' W 123°52'0 0.0
2014-Sep-28 04:33N 46°11' W 123°52'0 0.0
2014-Sep-28 03:33N 46°11' W 123°52'0 0.0
2014-Sep-28 02:33N 46°11' W 123°52'0 0.0
2014-Sep-28 01:33N 46°11' W 123°52'0 0.0
2014-Sep-28 00:33N 46°11' W 123°52'1 1.0
2014-Sep-27 23:33N 46°12' W 123°50'0 0.0
2014-Sep-27 22:33N 46°12' W 123°50'1 1.1
2014-Sep-27 21:33N 46°11' W 123°52'0 0.0
2014-Sep-27 20:33N 46°11' W 123°52'0 0.0
2014-Sep-27 19:33N 46°11' W 123°52'0 0.0
2014-Sep-27 18:34N 46°11' W 123°52'0 0.0
2014-Sep-27 17:34N 46°11' W 123°52'0 0.0
2014-Sep-27 16:33N 46°11' W 123°52'0 0.0
2014-Sep-27 15:34N 46°11' W 123°52'0 0.0
2014-Sep-27 14:34N 46°11' W 123°52'0 0.1
2014-Sep-27 13:33N 46°11' W 123°52'0 0.0
2014-Sep-27 12:33N 46°11' W 123°52'0 0.0
2014-Sep-27 11:34N 46°11' W 123°52'0 0.0
2014-Sep-27 10:33N 46°11' W 123°52'0 0.0
2014-Sep-27 09:34N 46°11' W 123°52'0 0.0
2014-Sep-27 08:34N 46°11' W 123°52'0 0.0
2014-Sep-27 07:34N 46°11' W 123°52'0 0.0
2014-Sep-27 06:33N 46°11' W 123°52'0 0.0
2014-Sep-27 05:34N 46°11' W 123°52'2 2.5
2014-Sep-27 04:33N 46°12' W 123°55'5 5.3
2014-Sep-27 03:33N 46°15' W 124°01'4 3.9
2014-Sep-27 02:33N 46°15' W 124°07'1 0.0
2014-Sep-26 09:33N 46°15' W 124°06'6 6.0
2014-Sep-26 08:33N 46°13' W 123°58'4 4.5
2014-Sep-26 07:33N 46°11' W 123°52'0 0.0
2014-Sep-26 06:33N 46°11' W 123°52'0 0.0
2014-Sep-26 05:33N 46°11' W 123°52'0 0.0
2014-Sep-26 04:33N 46°11' W 123°52'0 0.0
2014-Sep-26 03:33N 46°11' W 123°52'0 0.0
2014-Sep-26 02:33N 46°11' W 123°52'0 0.0
2014-Sep-26 01:33N 46°11' W 123°52'0 0.0
2014-Sep-26 00:33N 46°11' W 123°52'0 0.0
2014-Sep-25 23:33N 46°11' W 123°52'0 0.0
2014-Sep-25 22:33N 46°11' W 123°52'0 0.0
2014-Sep-25 21:33N 46°11' W 123°52'0 0.0
2014-Sep-25 20:33N 46°11' W 123°52'0 0.0
2014-Sep-25 19:33N 46°11' W 123°52'0 0.0
2014-Sep-25 18:33N 46°11' W 123°52'0 0.0
2014-Sep-25 17:33N 46°11' W 123°52'0 0.0
2014-Sep-25 16:33N 46°11' W 123°52'0 0.0
2014-Sep-25 15:33N 46°11' W 123°52'0 0.0
2014-Sep-25 14:33N 46°11' W 123°52'0 0.0
2014-Sep-25 13:33N 46°11' W 123°52'0 0.0
2014-Sep-25 12:33N 46°11' W 123°52'0 0.0
2014-Sep-25 11:33N 46°11' W 123°52'0 0.0
2014-Sep-25 10:33N 46°11' W 123°52'0 0.0
2014-Sep-25 09:33N 46°11' W 123°52'0 0.0
2014-Sep-25 08:33N 46°11' W 123°52'0 0.0
2014-Sep-25 07:33N 46°11' W 123°52'0 0.0
2014-Sep-25 06:33N 46°11' W 123°52'0 0.0
2014-Sep-25 05:33N 46°11' W 123°52'0 0.0
2014-Sep-25 04:33N 46°11' W 123°52'0 0.0
2014-Sep-25 03:33N 46°11' W 123°52'0 0.0
2014-Sep-25 02:33N 46°11' W 123°52'0 0.0
2014-Sep-25 01:33N 46°11' W 123°52'0 0.0
2014-Sep-25 00:34N 46°11' W 123°52'0 0.0
2014-Sep-24 23:33N 46°11' W 123°52'0 0.0
2014-Sep-24 22:33N 46°11' W 123°52'0 0.0
2014-Sep-24 21:33N 46°11' W 123°52'0 0.0
2014-Sep-24 20:33N 46°11' W 123°52'0 0.0
2014-Sep-24 19:33N 46°11' W 123°52'0 0.0
2014-Sep-24 18:33N 46°11' W 123°52'1 1.1
2014-Sep-24 17:33N 46°12' W 123°50'1 0.6
2014-Sep-24 16:34N 46°12' W 123°51'1 0.5
2014-Sep-24 15:33N 46°11' W 123°52'0 0.0
2014-Sep-24 14:33N 46°11' W 123°52'0 0.0
2014-Sep-24 13:33N 46°11' W 123°52'0 0.0
2014-Sep-24 12:33N 46°11' W 123°52'0 0.0
2014-Sep-24 11:33N 46°11' W 123°52'0 0.0
2014-Sep-24 10:33N 46°11' W 123°52'0 0.0
2014-Sep-24 09:33N 46°11' W 123°52'0 0.0
2014-Sep-24 08:33N 46°11' W 123°52'0 0.0
2014-Sep-24 07:33N 46°11' W 123°52'0 0.0
2014-Sep-24 06:33N 46°11' W 123°52'0 0.2
2014-Sep-24 05:33N 46°11' W 123°52'0 0.0
2014-Sep-24 04:34N 46°11' W 123°52'0 0.0
2014-Sep-24 03:33N 46°11' W 123°52'0 0.0
2014-Sep-24 02:33N 46°11' W 123°52'0 0.0
2014-Sep-24 01:33N 46°11' W 123°52'0 0.0
2014-Sep-24 00:33N 46°11' W 123°52'0 0.0
2014-Sep-23 23:28N 46°11' W 123°52'0 0.0
2014-Sep-23 22:33N 46°11' W 123°52'0 0.0
2014-Sep-23 21:33N 46°11' W 123°52'0 0.0
2014-Sep-23 20:33N 46°11' W 123°52'0 0.0
2014-Sep-23 19:33N 46°11' W 123°52'0 0.0
2014-Sep-23 18:33N 46°11' W 123°52'0 0.0
2014-Sep-23 17:33N 46°11' W 123°52'0 0.0
2014-Sep-23 16:33N 46°11' W 123°52'0 0.0
2014-Sep-23 15:33N 46°11' W 123°52'0 0.0
2014-Sep-23 14:33N 46°11' W 123°52'0 0.0
2014-Sep-23 13:33N 46°11' W 123°52'0 0.0
2014-Sep-23 12:33N 46°11' W 123°52'0 0.0
2014-Sep-23 11:33N 46°11' W 123°52'0 0.0
2014-Sep-23 10:33N 46°11' W 123°52'0 0.0
2014-Sep-23 09:33N 46°11' W 123°52'0 0.0
2014-Sep-23 08:34N 46°11' W 123°52'0 0.0
2014-Sep-23 07:33N 46°11' W 123°52'0 0.0
2014-Sep-23 06:33N 46°11' W 123°52'0 0.0
2014-Sep-23 05:33N 46°11' W 123°52'0 0.0
2014-Sep-23 04:33N 46°11' W 123°52'0 0.0
2014-Sep-23 03:34N 46°11' W 123°52'0 0.0
2014-Sep-23 02:33N 46°11' W 123°52'0 0.0
2014-Sep-23 01:34N 46°11' W 123°52'0 0.0
2014-Sep-23 00:33N 46°11' W 123°52'2 2.2
2014-Sep-22 23:33N 46°12' W 123°55'6 5.7
2014-Sep-22 22:33N 46°15' W 124°01'5 0.6
2014-Sep-22 13:29N 46°17' W 124°09'1111.9
2014-Sep-22 12:34N 46°12' W 123°55'2 2.0
2014-Sep-22 11:34N 46°11' W 123°52'0 0.0
2014-Sep-22 10:33N 46°11' W 123°52'0 0.0
2014-Sep-22 09:34N 46°11' W 123°52'0 0.0
2014-Sep-22 08:34N 46°11' W 123°52'0 0.0
2014-Sep-22 07:33N 46°11' W 123°52'0 0.0
2014-Sep-22 06:34N 46°11' W 123°52'0 0.0
2014-Sep-22 05:33N 46°11' W 123°52'0 0.0
2014-Sep-22 04:34N 46°11' W 123°52'0 0.0
2014-Sep-22 03:33N 46°11' W 123°52'0 0.0
2014-Sep-22 02:33N 46°11' W 123°52'3 2.8
2014-Sep-22 01:33N 46°12' W 123°56'5 4.9
2014-Sep-22 00:33N 46°15' W 124°01'5 4.6
2014-Sep-21 23:30N 46°16' W 124°08'1 0.1
2014-Sep-21 11:27N 46°17' W 124°10'14 7.0
2014-Sep-21 09:30N 46°11' W 123°52'0 0.0
2014-Sep-21 08:34N 46°11' W 123°52'0 0.0
2014-Sep-21 07:33N 46°11' W 123°52'0 0.0
2014-Sep-21 06:33N 46°11' W 123°52'0 0.0
2014-Sep-21 05:34N 46°11' W 123°52'0 0.0
2014-Sep-21 04:34N 46°11' W 123°52'0 0.0
2014-Sep-21 03:34N 46°11' W 123°52'0 0.2
2014-Sep-21 02:33N 46°11' W 123°52'0 0.0
2014-Sep-21 01:33N 46°11' W 123°52'0 0.0
2014-Sep-21 00:33N 46°11' W 123°52'0 0.0
2014-Sep-20 23:34N 46°11' W 123°52'0 0.0
2014-Sep-20 22:34N 46°11' W 123°52'0 0.0
2014-Sep-20 21:34N 46°11' W 123°52'0 0.0
2014-Sep-20 20:33N 46°11' W 123°52'0 0.0
2014-Sep-20 19:33N 46°11' W 123°52'0 0.0
2014-Sep-20 18:34N 46°11' W 123°52'0 0.0
2014-Sep-20 17:33N 46°11' W 123°52'0 0.0
2014-Sep-20 16:33N 46°11' W 123°52'0 0.0
2014-Sep-20 15:33N 46°11' W 123°52'0 0.0
2014-Sep-20 14:34N 46°11' W 123°52'0 0.0
2014-Sep-20 13:34N 46°11' W 123°52'0 0.2
2014-Sep-20 12:33N 46°11' W 123°52'0 0.0
2014-Sep-20 11:34N 46°11' W 123°52'0 0.0
2014-Sep-20 10:33N 46°11' W 123°52'0 0.0
2014-Sep-20 09:34N 46°11' W 123°52'2 2.0
2014-Sep-20 08:34N 46°12' W 123°55'7 6.9
2014-Sep-20 07:31N 46°15' W 124°03'  
Track history (hours):
 
Tides and Currents Weather Stations Pressure Air Temp Water Temp Dewpoint Dewpoint Depression Visibility Wind Speed Wind Dir Waves Ship Positions

Perseverance

Owner: Cooper, Mark E, Toledo, OR. More information available from US FCC via Universal Licensing System and Coast Guard Vessel Documentation Center.

Last reported at 2014-Sep-28 09:32 UTC. Time now 2014-Oct-21 03:47 UTC.
Position N 46°18' W 124°10'.
Warning: this ship's position is 22 days out of date.

Type: Fishing. MMSI: 367618000.

Date/timePositionNaut miles runAvg speedWind from/ knotsBaromVisibWave heightAir tempDewpointWater temp
2014-Sep-28 09:32N 46°18' W 124°10'7 7.1
2014-Sep-28 08:33N 46°15' W 124°01'6 6.4
2014-Sep-28 07:33N 46°11' W 123°54'1 1.5
2014-Sep-28 06:33N 46°11' W 123°52'0 0.0
2014-Sep-28 05:33N 46°11' W 123°52'0 0.0
2014-Sep-28 04:33N 46°11' W 123°52'0 0.0
2014-Sep-28 03:33N 46°11' W 123°52'0 0.0
2014-Sep-28 02:33N 46°11' W 123°52'0 0.0
2014-Sep-28 01:33N 46°11' W 123°52'0 0.0
2014-Sep-28 00:33N 46°11' W 123°52'1 1.0
2014-Sep-27 23:33N 46°12' W 123°50'0 0.0
2014-Sep-27 22:33N 46°12' W 123°50'1 1.1
2014-Sep-27 21:33N 46°11' W 123°52'0 0.0
2014-Sep-27 20:33N 46°11' W 123°52'0 0.0
2014-Sep-27 19:33N 46°11' W 123°52'0 0.0
2014-Sep-27 18:34N 46°11' W 123°52'0 0.0
2014-Sep-27 17:34N 46°11' W 123°52'0 0.0
2014-Sep-27 16:33N 46°11' W 123°52'0 0.0
2014-Sep-27 15:34N 46°11' W 123°52'0 0.0
2014-Sep-27 14:34N 46°11' W 123°52'0 0.1
2014-Sep-27 13:33N 46°11' W 123°52'0 0.0
2014-Sep-27 12:33N 46°11' W 123°52'0 0.0
2014-Sep-27 11:34N 46°11' W 123°52'0 0.0
2014-Sep-27 10:33N 46°11' W 123°52'0 0.0
2014-Sep-27 09:34N 46°11' W 123°52'0 0.0
2014-Sep-27 08:34N 46°11' W 123°52'0 0.0
2014-Sep-27 07:34N 46°11' W 123°52'0 0.0
2014-Sep-27 06:33N 46°11' W 123°52'0 0.0
2014-Sep-27 05:34N 46°11' W 123°52'2 2.5
2014-Sep-27 04:33N 46°12' W 123°55'5 5.3
2014-Sep-27 03:33N 46°15' W 124°01'4 3.9
2014-Sep-27 02:33N 46°15' W 124°07'1 0.0
2014-Sep-26 09:33N 46°15' W 124°06'6 6.0
2014-Sep-26 08:33N 46°13' W 123°58'4 4.5
2014-Sep-26 07:33N 46°11' W 123°52'0 0.0
2014-Sep-26 06:33N 46°11' W 123°52'0 0.0
2014-Sep-26 05:33N 46°11' W 123°52'0 0.0
2014-Sep-26 04:33N 46°11' W 123°52'0 0.0
2014-Sep-26 03:33N 46°11' W 123°52'0 0.0
2014-Sep-26 02:33N 46°11' W 123°52'0 0.0
2014-Sep-26 01:33N 46°11' W 123°52'0 0.0
2014-Sep-26 00:33N 46°11' W 123°52'0 0.0
2014-Sep-25 23:33N 46°11' W 123°52'0 0.0
2014-Sep-25 22:33N 46°11' W 123°52'0 0.0
2014-Sep-25 21:33N 46°11' W 123°52'0 0.0
2014-Sep-25 20:33N 46°11' W 123°52'0 0.0
2014-Sep-25 19:33N 46°11' W 123°52'0 0.0
2014-Sep-25 18:33N 46°11' W 123°52'0 0.0
2014-Sep-25 17:33N 46°11' W 123°52'0 0.0
2014-Sep-25 16:33N 46°11' W 123°52'0 0.0
2014-Sep-25 15:33N 46°11' W 123°52'0 0.0
2014-Sep-25 14:33N 46°11' W 123°52'0 0.0
2014-Sep-25 13:33N 46°11' W 123°52'0 0.0
2014-Sep-25 12:33N 46°11' W 123°52'0 0.0
2014-Sep-25 11:33N 46°11' W 123°52'0 0.0
2014-Sep-25 10:33N 46°11' W 123°52'0 0.0
2014-Sep-25 09:33N 46°11' W 123°52'0 0.0
2014-Sep-25 08:33N 46°11' W 123°52'0 0.0
2014-Sep-25 07:33N 46°11' W 123°52'0 0.0
2014-Sep-25 06:33N 46°11' W 123°52'0 0.0
2014-Sep-25 05:33N 46°11' W 123°52'0 0.0
2014-Sep-25 04:33N 46°11' W 123°52'0 0.0
2014-Sep-25 03:33N 46°11' W 123°52'0 0.0
2014-Sep-25 02:33N 46°11' W 123°52'0 0.0
2014-Sep-25 01:33N 46°11' W 123°52'0 0.0
2014-Sep-25 00:34N 46°11' W 123°52'0 0.0
2014-Sep-24 23:33N 46°11' W 123°52'0 0.0
2014-Sep-24 22:33N 46°11' W 123°52'0 0.0
2014-Sep-24 21:33N 46°11' W 123°52'0 0.0
2014-Sep-24 20:33N 46°11' W 123°52'0 0.0
2014-Sep-24 19:33N 46°11' W 123°52'0 0.0
2014-Sep-24 18:33N 46°11' W 123°52'1 1.1
2014-Sep-24 17:33N 46°12' W 123°50'1 0.6
2014-Sep-24 16:34N 46°12' W 123°51'1 0.5
2014-Sep-24 15:33N 46°11' W 123°52'0 0.0
2014-Sep-24 14:33N 46°11' W 123°52'0 0.0
2014-Sep-24 13:33N 46°11' W 123°52'0 0.0
2014-Sep-24 12:33N 46°11' W 123°52'0 0.0
2014-Sep-24 11:33N 46°11' W 123°52'0 0.0
2014-Sep-24 10:33N 46°11' W 123°52'0 0.0
2014-Sep-24 09:33N 46°11' W 123°52'0 0.0
2014-Sep-24 08:33N 46°11' W 123°52'0 0.0
2014-Sep-24 07:33N 46°11' W 123°52'0 0.0
2014-Sep-24 06:33N 46°11' W 123°52'0 0.2
2014-Sep-24 05:33N 46°11' W 123°52'0 0.0
2014-Sep-24 04:34N 46°11' W 123°52'0 0.0
2014-Sep-24 03:33N 46°11' W 123°52'0 0.0
2014-Sep-24 02:33N 46°11' W 123°52'0 0.0
2014-Sep-24 01:33N 46°11' W 123°52'0 0.0
2014-Sep-24 00:33N 46°11' W 123°52'0 0.0
2014-Sep-23 23:28N 46°11' W 123°52'0 0.0
2014-Sep-23 22:33N 46°11' W 123°52'0 0.0
2014-Sep-23 21:33N 46°11' W 123°52'0 0.0
2014-Sep-23 20:33N 46°11' W 123°52'0 0.0
2014-Sep-23 19:33N 46°11' W 123°52'0 0.0
2014-Sep-23 18:33N 46°11' W 123°52'0 0.0
2014-Sep-23 17:33N 46°11' W 123°52'0 0.0
2014-Sep-23 16:33N 46°11' W 123°52'0 0.0
2014-Sep-23 15:33N 46°11' W 123°52'0 0.0
2014-Sep-23 14:33N 46°11' W 123°52'0 0.0
2014-Sep-23 13:33N 46°11' W 123°52'0 0.0
2014-Sep-23 12:33N 46°11' W 123°52'0 0.0
2014-Sep-23 11:33N 46°11' W 123°52'0 0.0
2014-Sep-23 10:33N 46°11' W 123°52'0 0.0
2014-Sep-23 09:33N 46°11' W 123°52'0 0.0
2014-Sep-23 08:34N 46°11' W 123°52'0 0.0
2014-Sep-23 07:33N 46°11' W 123°52'0 0.0
2014-Sep-23 06:33N 46°11' W 123°52'0 0.0
2014-Sep-23 05:33N 46°11' W 123°52'0 0.0
2014-Sep-23 04:33N 46°11' W 123°52'0 0.0
2014-Sep-23 03:34N 46°11' W 123°52'0 0.0
2014-Sep-23 02:33N 46°11' W 123°52'0 0.0
2014-Sep-23 01:34N 46°11' W 123°52'0 0.0
2014-Sep-23 00:33N 46°11' W 123°52'2 2.2
2014-Sep-22 23:33N 46°12' W 123°55'6 5.7
2014-Sep-22 22:33N 46°15' W 124°01'5 0.6
2014-Sep-22 13:29N 46°17' W 124°09'1111.9
2014-Sep-22 12:34N 46°12' W 123°55'2 2.0
2014-Sep-22 11:34N 46°11' W 123°52'0 0.0
2014-Sep-22 10:33N 46°11' W 123°52'0 0.0
2014-Sep-22 09:34N 46°11' W 123°52'0 0.0
2014-Sep-22 08:34N 46°11' W 123°52'0 0.0
2014-Sep-22 07:33N 46°11' W 123°52'0 0.0
2014-Sep-22 06:34N 46°11' W 123°52'0 0.0
2014-Sep-22 05:33N 46°11' W 123°52'0 0.0
2014-Sep-22 04:34N 46°11' W 123°52'0 0.0
2014-Sep-22 03:33N 46°11' W 123°52'0 0.0
2014-Sep-22 02:33N 46°11' W 123°52'3 2.8
2014-Sep-22 01:33N 46°12' W 123°56'5 4.9
2014-Sep-22 00:33N 46°15' W 124°01'5 4.6
2014-Sep-21 23:30N 46°16' W 124°08'1 0.1
2014-Sep-21 11:27N 46°17' W 124°10'14 7.0
2014-Sep-21 09:30N 46°11' W 123°52'0 0.0
2014-Sep-21 08:34N 46°11' W 123°52'0 0.0
2014-Sep-21 07:33N 46°11' W 123°52'0 0.0
2014-Sep-21 06:33N 46°11' W 123°52'0 0.0
2014-Sep-21 05:34N 46°11' W 123°52'0 0.0
2014-Sep-21 04:34N 46°11' W 123°52'0 0.0
2014-Sep-21 03:34N 46°11' W 123°52'0 0.2
2014-Sep-21 02:33N 46°11' W 123°52'0 0.0
2014-Sep-21 01:33N 46°11' W 123°52'0 0.0
2014-Sep-21 00:33N 46°11' W 123°52'0 0.0
2014-Sep-20 23:34N 46°11' W 123°52'0 0.0
2014-Sep-20 22:34N 46°11' W 123°52'0 0.0
2014-Sep-20 21:34N 46°11' W 123°52'0 0.0
2014-Sep-20 20:33N 46°11' W 123°52'0 0.0
2014-Sep-20 19:33N 46°11' W 123°52'0 0.0
2014-Sep-20 18:34N 46°11' W 123°52'0 0.0
2014-Sep-20 17:33N 46°11' W 123°52'0 0.0
2014-Sep-20 16:33N 46°11' W 123°52'0 0.0
2014-Sep-20 15:33N 46°11' W 123°52'0 0.0
2014-Sep-20 14:34N 46°11' W 123°52'0 0.0
2014-Sep-20 13:34N 46°11' W 123°52'0 0.2
2014-Sep-20 12:33N 46°11' W 123°52'0 0.0
2014-Sep-20 11:34N 46°11' W 123°52'0 0.0
2014-Sep-20 10:33N 46°11' W 123°52'0 0.0
2014-Sep-20 09:34N 46°11' W 123°52'2 2.0
2014-Sep-20 08:34N 46°12' W 123°55'7 6.9
2014-Sep-20 07:31N 46°15' W 124°03'  

Dump ship's entire track history